createdAt,value
2022-10-11T00:02:11.461Z,4.44
2022-10-11T00:03:11.472Z,4.92
2022-10-11T00:04:11.445Z,4.76
2022-10-11T00:07:11.446Z,4.91
2022-10-11T00:11:11.515Z,4.40
2022-10-11T00:12:11.479Z,4.24
2022-10-11T00:13:11.504Z,4.14
2022-10-11T00:15:11.429Z,4.28
2022-10-11T00:16:11.507Z,5.28
2022-10-11T00:17:11.492Z,4.73
2022-10-11T00:18:11.477Z,4.79
2022-10-11T00:19:11.477Z,4.22
2022-10-11T00:20:11.446Z,5.17
2022-10-11T00:22:11.520Z,4.55
2022-10-11T00:23:11.509Z,4.45
2022-10-11T00:25:11.537Z,4.36
2022-10-11T00:26:11.484Z,4.07
2022-10-11T00:28:11.567Z,4.39
2022-10-11T00:29:11.527Z,4.44
2022-10-11T00:30:11.528Z,4.91
2022-10-11T00:31:11.530Z,5.08
2022-10-11T00:32:11.502Z,4.81
2022-10-11T00:34:11.503Z,4.50
2022-10-11T00:35:11.572Z,5.53
2022-10-11T00:36:11.518Z,5.24
2022-10-11T00:38:11.535Z,5.63
2022-10-11T00:39:13.771Z,5.17
2022-10-11T00:41:11.525Z,5.58
2022-10-11T00:42:11.551Z,5.05
2022-10-11T00:43:11.570Z,5.31
2022-10-11T00:45:11.614Z,5.48
2022-10-11T00:46:11.607Z,5.65
2022-10-11T00:47:11.549Z,5.59
2022-10-11T00:49:11.540Z,6.56
2022-10-11T00:51:11.603Z,5.72
2022-10-11T00:53:11.545Z,5.97
2022-10-11T00:54:11.603Z,5.77
2022-10-11T00:55:11.584Z,6.01
2022-10-11T00:56:11.589Z,6.24
2022-10-11T00:57:11.585Z,5.60
2022-10-11T01:00:11.544Z,5.80
2022-10-11T01:01:11.626Z,6.41
2022-10-11T01:02:11.510Z,5.74
2022-10-11T01:03:11.529Z,5.85
2022-10-11T01:06:11.562Z,6.32
2022-10-11T01:11:11.501Z,6.04
2022-10-11T01:12:11.504Z,6.68
2022-10-11T01:13:11.500Z,6.47
2022-10-11T01:14:11.513Z,6.47
2022-10-11T01:16:11.497Z,6.24
2022-10-11T01:17:11.509Z,5.78
2022-10-11T01:19:11.529Z,6.13
2022-10-11T01:20:11.530Z,5.55
2022-10-11T01:21:11.527Z,6.04
2022-10-11T01:22:11.537Z,6.06
2022-10-11T01:23:11.550Z,5.98
2022-10-11T01:24:11.519Z,6.31
2022-10-11T01:25:11.527Z,5.86
2022-10-11T01:30:11.560Z,4.96
2022-10-11T01:31:11.530Z,5.37
2022-10-11T01:32:11.546Z,5.69
2022-10-11T01:33:11.578Z,5.47
2022-10-11T01:34:11.585Z,6.33
2022-10-11T01:35:11.564Z,6.01
2022-10-11T01:37:11.588Z,6.34
2022-10-11T01:39:11.597Z,6.07
2022-10-11T01:40:11.585Z,6.75
2022-10-11T01:41:11.571Z,5.93
2022-10-11T01:42:11.571Z,6.04
2022-10-11T01:43:11.577Z,6.28
2022-10-11T01:44:11.589Z,6.25
2022-10-11T01:47:11.623Z,6.14
2022-10-11T01:48:11.606Z,6.51
2022-10-11T01:52:11.631Z,6.55
2022-10-11T01:53:11.597Z,6.24
2022-10-11T01:54:11.610Z,6.40
2022-10-11T01:56:11.595Z,5.98
2022-10-11T01:58:11.643Z,6.64
2022-10-11T01:59:11.630Z,5.77
2022-10-11T02:00:11.622Z,6.37
2022-10-11T02:01:11.632Z,5.93
2022-10-11T02:03:11.636Z,5.99
2022-10-11T02:07:11.638Z,6.11
2022-10-11T02:09:11.667Z,5.63
2022-10-11T02:11:11.638Z,5.49
2022-10-11T02:12:11.652Z,6.44
2022-10-11T02:14:11.677Z,5.36
2022-10-11T02:15:11.660Z,6.11
2022-10-11T02:16:11.688Z,6.30
2022-10-11T02:20:11.678Z,6.33
2022-10-11T02:21:11.674Z,5.69
2022-10-11T02:22:11.676Z,6.52
2022-10-11T02:23:11.678Z,6.94
2022-10-11T02:24:11.670Z,7.26
2022-10-11T02:25:11.665Z,6.77
2022-10-11T02:26:11.698Z,6.08
2022-10-11T02:29:11.704Z,7.02
2022-10-11T02:30:11.696Z,6.88
2022-10-11T02:31:11.682Z,5.99
2022-10-11T02:33:11.721Z,6.17
2022-10-11T02:35:11.726Z,7.28
2022-10-11T02:38:11.742Z,6.57
2022-10-11T02:39:11.717Z,6.44
2022-10-11T02:40:11.717Z,7.20
2022-10-11T02:46:11.795Z,6.84
2022-10-11T02:47:11.764Z,6.79
2022-10-11T02:48:11.729Z,6.57
2022-10-11T02:49:11.763Z,6.03
2022-10-11T02:51:53.316Z,6.96
2022-10-11T02:52:16.590Z,6.96
2022-10-11T02:57:48.343Z,6.75
2022-10-11T02:57:58.647Z,6.75
2022-10-11T02:58:11.711Z,6.73
2022-10-11T02:59:11.781Z,6.00
2022-10-11T03:01:11.835Z,6.45
2022-10-11T03:02:11.787Z,6.70
2022-10-11T03:05:11.802Z,6.45
2022-10-11T03:06:11.799Z,6.70
2022-10-11T03:08:11.789Z,6.73
2022-10-11T03:09:11.796Z,6.34
2022-10-11T03:10:11.809Z,6.81
2022-10-11T03:13:14.887Z,6.52
2022-10-11T03:18:11.836Z,6.25
2022-10-11T03:19:14.676Z,6.27
2022-10-11T03:20:11.811Z,6.69
2022-10-11T03:22:11.834Z,5.82
2022-10-11T03:23:11.856Z,6.01
2022-10-11T03:25:11.837Z,5.91
2022-10-11T03:26:11.841Z,6.18
2022-10-11T03:27:11.855Z,6.53
2022-10-11T03:28:11.914Z,6.02
2022-10-11T03:29:11.837Z,6.05
2022-10-11T03:30:16.113Z,5.72
2022-10-11T03:31:11.860Z,6.86
2022-10-11T03:32:11.838Z,5.86
2022-10-11T03:34:11.851Z,5.98
2022-10-11T03:40:11.874Z,6.55
2022-10-11T03:41:11.876Z,6.58
2022-10-11T03:42:11.883Z,6.62
2022-10-11T03:43:11.885Z,6.72
2022-10-11T03:45:11.907Z,6.13
2022-10-11T03:46:11.896Z,6.97
2022-10-11T03:47:11.905Z,6.36
2022-10-11T03:48:11.908Z,6.45
2022-10-11T03:51:11.904Z,6.58
2022-10-11T03:52:11.907Z,5.95
2022-10-11T03:53:11.896Z,6.17
2022-10-11T03:54:11.905Z,6.63
2022-10-11T03:55:11.915Z,6.02
2022-10-11T03:56:12.320Z,6.47
2022-10-11T03:57:11.944Z,6.31
2022-10-11T03:58:11.907Z,5.77
2022-10-11T03:59:11.938Z,5.29
2022-10-11T04:00:11.924Z,5.90
2022-10-11T04:01:11.926Z,6.57
2022-10-11T04:02:12.093Z,5.87
2022-10-11T04:03:11.936Z,6.64
2022-10-11T04:04:11.944Z,5.82
2022-10-11T04:05:11.938Z,6.51
2022-10-11T04:06:11.945Z,6.46
2022-10-11T04:08:12.431Z,5.95
2022-10-11T04:10:11.974Z,6.31
2022-10-11T04:11:11.955Z,6.17
2022-10-11T04:12:11.963Z,6.62
2022-10-11T04:13:11.962Z,5.55
2022-10-11T04:14:11.969Z,5.60
2022-10-11T04:15:11.958Z,5.17
2022-10-11T04:16:11.968Z,5.59
2022-10-11T04:17:12.015Z,5.43
2022-10-11T04:18:11.966Z,6.17
2022-10-11T04:21:11.988Z,6.53
2022-10-11T04:22:11.980Z,6.22
2022-10-11T04:25:12.009Z,6.24
2022-10-11T04:29:12.029Z,6.50
2022-10-11T04:30:12.033Z,7.04
2022-10-11T04:31:12.012Z,6.62
2022-10-11T04:32:12.022Z,7.03
2022-10-11T04:33:12.034Z,6.44
2022-10-11T04:34:12.020Z,5.78
2022-10-11T04:35:11.992Z,6.26
2022-10-11T04:36:12.031Z,5.80
2022-10-11T04:37:12.018Z,6.43
2022-10-11T04:38:12.030Z,6.40
2022-10-11T04:39:12.043Z,5.99
2022-10-11T04:40:12.150Z,5.61
2022-10-11T04:41:12.046Z,5.26
2022-10-11T04:42:12.054Z,5.75
2022-10-11T04:45:12.045Z,5.82
2022-10-11T04:48:12.087Z,6.38
2022-10-11T04:49:12.032Z,5.44
2022-10-11T04:50:12.070Z,6.22
2022-10-11T04:51:12.110Z,6.24
2022-10-11T04:52:12.042Z,6.07
2022-10-11T04:56:12.099Z,6.66
2022-10-11T04:57:12.091Z,6.07
2022-10-11T04:59:12.064Z,6.25
2022-10-11T05:00:12.083Z,6.59
2022-10-11T05:01:12.108Z,5.52
2022-10-11T05:02:12.227Z,6.71
2022-10-11T05:03:12.095Z,5.57
2022-10-11T05:04:12.110Z,7.06
2022-10-11T05:05:12.090Z,7.22
2022-10-11T05:06:12.637Z,6.14
2022-10-11T05:07:12.106Z,6.58
2022-10-11T05:09:12.143Z,6.85
2022-10-11T05:10:12.123Z,5.62
2022-10-11T05:12:12.110Z,5.81
2022-10-11T05:14:12.122Z,6.54
2022-10-11T05:15:12.132Z,6.31
2022-10-11T05:16:12.590Z,6.30
2022-10-11T05:17:12.128Z,6.64
2022-10-11T05:18:12.158Z,5.80
2022-10-11T05:19:12.129Z,5.70
2022-10-11T05:21:12.158Z,7.16
2022-10-11T05:26:12.137Z,6.46
2022-10-11T05:27:12.189Z,6.93
2022-10-11T05:28:12.186Z,6.83
2022-10-11T05:29:12.175Z,6.64
2022-10-11T05:30:12.177Z,6.72
2022-10-11T05:31:12.170Z,7.34
2022-10-11T05:33:12.175Z,7.40
2022-10-11T05:34:12.176Z,7.99
2022-10-11T05:36:12.164Z,7.43
2022-10-11T05:38:12.183Z,7.29
2022-10-11T05:41:12.200Z,6.79
2022-10-11T05:43:12.175Z,6.98
2022-10-11T05:46:12.190Z,7.59
2022-10-11T05:47:12.205Z,7.93
2022-10-11T05:48:12.206Z,8.19
2022-10-11T05:49:12.202Z,6.77
2022-10-11T05:52:12.223Z,5.82
2022-10-11T05:53:12.217Z,6.24
2022-10-11T05:55:12.236Z,6.55
2022-10-11T05:56:12.235Z,6.76
2022-10-11T05:58:12.270Z,6.69
2022-10-11T05:59:12.254Z,6.74
2022-10-11T06:00:12.235Z,6.89
2022-10-11T06:01:12.297Z,7.35
2022-10-11T06:03:12.360Z,7.43
2022-10-11T06:04:12.246Z,6.34
2022-10-11T06:08:12.274Z,7.83
2022-10-11T06:11:12.324Z,6.64
2022-10-11T06:12:12.273Z,7.30
2022-10-11T06:14:12.275Z,7.16
2022-10-11T06:15:12.280Z,8.67
2022-10-11T06:17:12.325Z,8.56
2022-10-11T06:20:12.311Z,8.21
2022-10-11T06:21:12.283Z,8.82
2022-10-11T06:26:12.332Z,8.19
2022-10-11T06:27:12.318Z,9.20
2022-10-11T06:29:12.316Z,8.09
2022-10-11T06:30:12.303Z,10.00
2022-10-11T06:31:12.329Z,9.77
2022-10-11T06:33:12.307Z,8.57
2022-10-11T06:34:12.345Z,9.27
2022-10-11T06:35:12.344Z,8.72
2022-10-11T06:36:12.315Z,8.37
2022-10-11T06:37:12.323Z,9.40
2022-10-11T06:38:12.342Z,8.64
2022-10-11T06:39:12.339Z,8.74
2022-10-11T06:40:12.328Z,9.08
2022-10-11T06:41:12.343Z,8.66
2022-10-11T06:43:12.351Z,9.47
2022-10-11T06:44:14.314Z,9.29
2022-10-11T06:45:12.362Z,9.40
2022-10-11T06:46:12.360Z,10.39
2022-10-11T06:47:12.365Z,9.91
2022-10-11T06:48:12.379Z,9.19
2022-10-11T06:49:12.383Z,10.23
2022-10-11T06:50:12.357Z,10.21
2022-10-11T06:51:12.376Z,10.12
2022-10-11T06:52:12.381Z,10.24
2022-10-11T06:54:12.385Z,11.53
2022-10-11T06:55:12.403Z,11.75
2022-10-11T06:56:12.365Z,12.16
2022-10-11T06:57:12.395Z,12.78
2022-10-11T06:58:12.389Z,12.26
2022-10-11T07:00:12.783Z,12.52
2022-10-11T07:01:12.508Z,11.67
2022-10-11T07:03:12.405Z,11.91
2022-10-11T07:04:12.405Z,12.99
2022-10-11T07:06:12.402Z,12.50
2022-10-11T07:07:12.423Z,12.26
2022-10-11T07:08:12.400Z,12.32
2022-10-11T07:09:12.424Z,11.92
2022-10-11T07:10:12.451Z,13.45
2022-10-11T07:11:12.419Z,12.89
2022-10-11T07:12:12.410Z,12.87
2022-10-11T07:13:17.018Z,13.14
2022-10-11T07:14:12.445Z,13.17
2022-10-11T07:15:12.425Z,12.23
2022-10-11T07:16:12.428Z,13.66
2022-10-11T07:17:12.447Z,13.94
2022-10-11T07:19:12.447Z,13.69
2022-10-11T07:20:12.492Z,13.50
2022-10-11T07:22:12.460Z,14.55
2022-10-11T07:27:12.468Z,13.55
2022-10-11T07:28:12.481Z,13.28
2022-10-11T07:29:12.470Z,12.77
2022-10-11T07:30:12.465Z,13.40
2022-10-11T07:31:12.459Z,15.02
2022-10-11T07:32:12.477Z,13.05
2022-10-11T07:33:12.474Z,13.24
2022-10-11T07:34:12.471Z,13.70
2022-10-11T07:35:12.465Z,14.17
2022-10-11T07:36:12.470Z,13.71
2022-10-11T07:37:12.501Z,13.23
2022-10-11T07:38:12.491Z,12.80
2022-10-11T07:39:12.495Z,12.71
2022-10-11T07:40:12.512Z,14.35
2022-10-11T07:41:12.486Z,12.68
2022-10-11T07:42:12.505Z,12.14
2022-10-11T07:43:12.492Z,13.39
2022-10-11T07:44:12.502Z,11.98
2022-10-11T07:45:12.500Z,12.11
2022-10-11T07:46:12.567Z,11.06
2022-10-11T07:47:12.555Z,11.90
2022-10-11T07:48:12.515Z,10.70
2022-10-11T07:49:12.521Z,11.90
2022-10-11T07:50:12.520Z,16.49
2022-10-11T07:51:12.535Z,13.66
2022-10-11T07:52:12.564Z,11.01
2022-10-11T07:53:12.546Z,11.09
2022-10-11T07:54:12.535Z,9.83
2022-10-11T07:55:12.515Z,10.88
2022-10-11T07:56:12.547Z,10.85
2022-10-11T07:57:12.526Z,10.57
2022-10-11T07:58:12.538Z,10.19
2022-10-11T07:59:12.557Z,10.30
2022-10-11T08:00:12.538Z,10.63
2022-10-11T08:01:12.592Z,9.36
2022-10-11T08:02:12.525Z,9.51
2022-10-11T08:03:12.575Z,10.09
2022-10-11T08:04:12.572Z,8.94
2022-10-11T08:05:12.560Z,9.18
2022-10-11T08:06:12.549Z,9.95
2022-10-11T08:07:12.551Z,9.50
2022-10-11T08:08:12.567Z,9.91
2022-10-11T08:09:12.603Z,11.29
2022-10-11T08:10:12.580Z,10.24
2022-10-11T08:11:12.569Z,10.36
2022-10-11T08:12:12.561Z,9.41
2022-10-11T08:13:12.598Z,9.74
2022-10-11T08:14:12.594Z,9.91
2022-10-11T08:15:12.575Z,10.34
2022-10-11T08:16:12.572Z,10.27
2022-10-11T08:17:12.601Z,10.27
2022-10-11T08:18:12.597Z,10.38
2022-10-11T08:19:12.581Z,10.16
2022-10-11T08:20:12.653Z,10.09
2022-10-11T08:21:12.589Z,10.33
2022-10-11T08:22:12.595Z,11.23
2022-10-11T08:23:12.608Z,12.23
2022-10-11T08:24:12.609Z,11.23
2022-10-11T08:25:12.640Z,11.49
2022-10-11T08:26:12.615Z,10.27
2022-10-11T08:27:12.589Z,10.73
2022-10-11T08:28:12.729Z,10.45
2022-10-11T08:29:12.595Z,10.73
2022-10-11T08:30:12.605Z,10.96
2022-10-11T08:31:12.640Z,10.94
2022-10-11T08:32:12.642Z,10.43
2022-10-11T08:33:12.646Z,10.02
2022-10-11T08:34:12.625Z,11.30
2022-10-11T08:35:12.620Z,10.05
2022-10-11T08:36:12.633Z,10.46
2022-10-11T08:37:12.653Z,10.53
2022-10-11T08:38:12.642Z,11.34
2022-10-11T08:39:12.648Z,10.01
2022-10-11T08:40:12.659Z,10.70
2022-10-11T08:41:12.631Z,10.91
2022-10-11T08:42:12.635Z,10.37
2022-10-11T08:43:12.654Z,11.23
2022-10-11T08:44:12.667Z,11.25
2022-10-11T08:45:12.660Z,10.79
2022-10-11T08:46:12.667Z,11.02
2022-10-11T08:47:12.674Z,11.43
2022-10-11T08:48:12.674Z,10.42
2022-10-11T08:49:12.691Z,10.52
2022-10-11T08:50:12.695Z,10.52
2022-10-11T08:51:12.676Z,10.55
2022-10-11T08:52:12.679Z,10.06
2022-10-11T08:53:12.678Z,9.92
2022-10-11T08:54:12.694Z,10.10
2022-10-11T08:55:12.671Z,9.71
2022-10-11T08:56:12.699Z,10.12
2022-10-11T08:57:12.697Z,9.92
2022-10-11T08:58:12.705Z,9.58
2022-10-11T09:00:12.688Z,10.54
2022-10-11T09:01:12.765Z,9.58
2022-10-11T09:02:12.718Z,9.45
2022-10-11T09:03:12.716Z,8.99
2022-10-11T09:04:12.706Z,7.98
2022-10-11T09:05:12.740Z,8.66
2022-10-11T09:06:12.718Z,8.07
2022-10-11T09:08:12.732Z,7.96
2022-10-11T09:09:12.727Z,8.34
2022-10-11T09:10:12.729Z,7.20
2022-10-11T09:11:12.713Z,7.59
2022-10-11T09:12:12.749Z,7.16
2022-10-11T09:13:12.718Z,8.26
2022-10-11T09:14:12.740Z,7.26
2022-10-11T09:15:12.744Z,8.22
2022-10-11T09:16:12.736Z,8.54
2022-10-11T09:17:12.746Z,12.94
2022-10-11T09:18:12.754Z,10.81
2022-10-11T09:19:12.752Z,9.71
2022-10-11T09:20:12.771Z,11.30
2022-10-11T09:21:12.744Z,10.54
2022-10-11T09:22:12.759Z,9.72
2022-10-11T09:23:12.782Z,9.80
2022-10-11T09:24:12.780Z,7.75
2022-10-11T09:25:12.765Z,7.90
2022-10-11T09:26:12.775Z,14.20
2022-10-11T09:27:12.784Z,8.74
2022-10-11T09:28:12.794Z,7.66
2022-10-11T09:29:12.798Z,6.41
2022-10-11T09:30:12.790Z,7.01
2022-10-11T09:31:12.784Z,6.47
2022-10-11T09:32:12.778Z,7.21
2022-10-11T09:33:12.793Z,6.26
2022-10-11T09:34:12.816Z,6.83
2022-10-11T09:35:12.803Z,7.00
2022-10-11T09:36:12.807Z,7.02
2022-10-11T09:37:12.786Z,7.22
2022-10-11T09:38:12.798Z,6.44
2022-10-11T09:39:12.825Z,6.90
2022-10-11T09:40:12.810Z,7.12
2022-10-11T09:41:12.812Z,6.71
2022-10-11T09:42:12.817Z,7.18
2022-10-11T09:43:12.832Z,7.10
2022-10-11T09:44:12.816Z,6.67
2022-10-11T09:45:12.818Z,8.08
2022-10-11T09:46:12.835Z,6.97
2022-10-11T09:47:12.849Z,6.81
2022-10-11T09:48:12.834Z,6.40
2022-10-11T09:49:12.846Z,6.51
2022-10-11T09:50:12.826Z,6.38
2022-10-11T09:51:12.846Z,5.68
2022-10-11T09:52:12.846Z,6.99
2022-10-11T09:53:12.857Z,7.29
2022-10-11T09:54:12.839Z,6.13
2022-10-11T09:55:15.363Z,6.30
2022-10-11T09:56:12.853Z,6.31
2022-10-11T09:57:12.868Z,7.11
2022-10-11T09:58:12.853Z,6.32
2022-10-11T09:59:12.888Z,6.47
2022-10-11T10:00:12.896Z,6.48
2022-10-11T10:01:12.869Z,6.45
2022-10-11T10:02:12.963Z,6.81
2022-10-11T10:03:12.863Z,7.36
2022-10-11T10:04:12.877Z,7.07
2022-10-11T10:05:12.852Z,7.11
2022-10-11T10:06:12.886Z,7.15
2022-10-11T10:07:12.893Z,7.27
2022-10-11T10:08:12.893Z,7.39
2022-10-11T10:09:12.906Z,7.22
2022-10-11T10:10:12.891Z,7.40
2022-10-11T10:11:12.904Z,7.20
2022-10-11T10:12:12.911Z,6.44
2022-10-11T10:13:12.938Z,7.26
2022-10-11T10:14:12.897Z,7.16
2022-10-11T10:15:12.880Z,7.23
2022-10-11T10:16:12.927Z,6.18
2022-10-11T10:17:12.941Z,6.36
2022-10-11T10:18:12.908Z,6.06
2022-10-11T10:19:12.902Z,6.59
2022-10-11T10:20:12.941Z,6.82
2022-10-11T10:21:12.913Z,7.15
2022-10-11T10:22:12.965Z,7.86
2022-10-11T10:23:12.951Z,6.55
2022-10-11T10:24:12.972Z,7.26
2022-10-11T10:25:12.970Z,6.47
2022-10-11T10:26:12.949Z,7.25
2022-10-11T10:27:12.947Z,7.63
2022-10-11T10:28:13.035Z,6.83
2022-10-11T10:31:12.958Z,7.60
2022-10-11T10:32:14.755Z,7.57
2022-10-11T10:33:12.951Z,7.56
2022-10-11T10:34:13.010Z,10.40
2022-10-11T10:35:12.961Z,7.73
2022-10-11T10:36:12.971Z,7.02
2022-10-11T10:37:12.957Z,7.51
2022-10-11T10:38:12.990Z,7.07
2022-10-11T10:39:12.988Z,7.24
2022-10-11T10:40:12.981Z,6.45
2022-10-11T10:41:12.979Z,7.45
2022-10-11T10:42:12.955Z,6.86
2022-10-11T10:43:12.986Z,7.22
2022-10-11T10:44:12.974Z,7.63
2022-10-11T10:45:16.210Z,7.54
2022-10-11T10:46:13.008Z,7.23
2022-10-11T10:47:13.007Z,7.39
2022-10-11T10:48:12.996Z,7.65
2022-10-11T10:49:52.321Z,7.52
2022-10-11T10:50:13.039Z,7.53
2022-10-11T10:53:13.029Z,7.52
2022-10-11T10:54:13.030Z,8.24
2022-10-11T10:55:13.010Z,7.63
2022-10-11T10:56:12.999Z,7.23
2022-10-11T10:57:13.027Z,7.59
2022-10-11T10:58:16.463Z,6.74
2022-10-11T10:59:13.009Z,7.22
2022-10-11T11:00:13.019Z,7.29
2022-10-11T11:01:13.042Z,7.34
2022-10-11T11:02:38.583Z,7.38
2022-10-11T11:03:13.036Z,8.05
2022-10-11T11:04:13.028Z,6.77
2022-10-11T11:05:13.034Z,7.44
2022-10-11T11:06:13.033Z,7.77
2022-10-11T11:07:13.047Z,7.27
2022-10-11T11:08:13.049Z,7.49
2022-10-11T11:09:13.049Z,7.79
2022-10-11T11:10:13.044Z,8.23
2022-10-11T11:11:13.065Z,7.31
2022-10-11T11:12:13.057Z,7.42
2022-10-11T11:13:13.025Z,7.01
2022-10-11T11:14:13.034Z,7.89
2022-10-11T11:15:13.055Z,7.61
2022-10-11T11:16:13.105Z,6.39
2022-10-11T11:17:13.077Z,6.92
2022-10-11T11:18:13.074Z,7.09
2022-10-11T11:19:13.085Z,7.35
2022-10-11T11:20:13.086Z,6.96
2022-10-11T11:21:13.065Z,6.96
2022-10-11T11:22:13.079Z,6.85
2022-10-11T11:23:13.109Z,6.37
2022-10-11T11:24:13.072Z,6.32
2022-10-11T11:25:13.095Z,6.65
2022-10-11T11:26:13.068Z,5.92
2022-10-11T11:27:13.094Z,5.62
2022-10-11T11:28:13.100Z,6.75
2022-10-11T11:29:13.105Z,6.47
2022-10-11T11:30:13.209Z,6.42
2022-10-11T11:31:13.091Z,6.78
2022-10-11T11:32:13.131Z,6.79
2022-10-11T11:33:13.122Z,6.81
2022-10-11T11:34:13.156Z,6.40
2022-10-11T11:35:13.111Z,6.58
2022-10-11T11:36:13.119Z,6.00
2022-10-11T11:37:13.119Z,6.23
2022-10-11T11:38:13.112Z,7.43
2022-10-11T11:39:13.124Z,6.93
2022-10-11T11:40:13.168Z,7.07
2022-10-11T11:41:13.114Z,5.80
2022-10-11T11:42:13.140Z,6.87
2022-10-11T11:43:13.118Z,6.85
2022-10-11T11:44:13.156Z,5.69
2022-10-11T11:45:13.148Z,5.90
2022-10-11T11:46:13.154Z,6.85
2022-10-11T11:48:13.135Z,6.63
2022-10-11T11:49:13.216Z,7.14
2022-10-11T11:50:13.220Z,6.43
2022-10-11T11:51:13.152Z,6.21
2022-10-11T11:52:13.159Z,6.17
2022-10-11T11:53:13.149Z,6.63
2022-10-11T11:54:13.193Z,7.20
2022-10-11T11:56:13.164Z,6.11
2022-10-11T11:57:13.170Z,7.32
2022-10-11T11:58:13.205Z,6.24
2022-10-11T11:59:13.179Z,6.06
2022-10-11T12:00:13.178Z,6.20
2022-10-11T12:01:13.173Z,6.33
2022-10-11T12:02:13.267Z,5.98
2022-10-11T12:03:13.203Z,6.03
2022-10-11T12:04:13.230Z,6.11
2022-10-11T12:05:13.182Z,6.81
2022-10-11T12:06:13.202Z,6.48
2022-10-11T12:07:17.133Z,6.50
2022-10-11T12:08:13.181Z,6.70
2022-10-11T12:09:13.211Z,5.74
2022-10-11T12:11:13.228Z,6.10
2022-10-11T12:12:13.219Z,6.75
2022-10-11T12:13:13.229Z,6.71
2022-10-11T12:14:13.201Z,6.27
2022-10-11T12:15:13.219Z,5.79
2022-10-11T12:16:13.227Z,5.84
2022-10-11T12:17:13.224Z,6.08
2022-10-11T12:19:13.244Z,6.22
2022-10-11T12:20:13.256Z,6.51
2022-10-11T12:21:13.240Z,5.86
2022-10-11T12:22:13.252Z,5.87
2022-10-11T12:24:13.247Z,5.50
2022-10-11T12:25:17.590Z,6.28
2022-10-11T12:26:13.227Z,7.25
2022-10-11T12:27:13.267Z,5.87
2022-10-11T12:29:13.238Z,5.72
2022-10-11T12:30:13.257Z,6.04
2022-10-11T12:31:13.247Z,5.55
2022-10-11T12:32:13.265Z,5.97
2022-10-11T12:34:13.278Z,5.51
2022-10-11T12:35:13.263Z,6.37
2022-10-11T12:36:13.879Z,5.33
2022-10-11T12:37:13.269Z,5.65
2022-10-11T12:38:13.271Z,5.58
2022-10-11T12:39:13.294Z,5.94
2022-10-11T12:40:13.278Z,5.66
2022-10-11T12:41:13.282Z,6.16
2022-10-11T12:42:13.296Z,5.65
2022-10-11T12:43:13.303Z,5.21
2022-10-11T12:44:13.265Z,5.91
2022-10-11T12:45:13.401Z,5.76
2022-10-11T12:46:13.302Z,6.37
2022-10-11T12:47:13.293Z,5.62
2022-10-11T12:48:13.289Z,5.55
2022-10-11T12:49:13.307Z,5.38
2022-10-11T12:50:13.308Z,5.67
2022-10-11T12:51:13.334Z,5.51
2022-10-11T12:52:13.323Z,5.50
2022-10-11T12:54:26.824Z,6.26
2022-10-11T12:55:13.322Z,5.42
2022-10-11T12:56:13.335Z,5.77
2022-10-11T12:57:13.329Z,6.34
2022-10-11T13:00:13.347Z,5.93
2022-10-11T13:01:13.375Z,5.76
2022-10-11T13:02:13.340Z,6.10
2022-10-11T13:03:13.334Z,5.59
2022-10-11T13:04:13.333Z,5.41
2022-10-11T13:05:13.362Z,5.65
2022-10-11T13:06:13.363Z,6.00
2022-10-11T13:07:13.392Z,6.25
2022-10-11T13:11:13.357Z,5.40
2022-10-11T13:12:13.346Z,5.33
2022-10-11T13:13:13.395Z,5.50
2022-10-11T13:14:13.356Z,5.39
2022-10-11T13:15:13.510Z,4.65
2022-10-11T13:17:13.382Z,4.90
2022-10-11T13:19:13.380Z,4.95
2022-10-11T13:20:13.412Z,5.58
2022-10-11T13:21:13.387Z,4.75
2022-10-11T13:22:13.379Z,5.62
2022-10-11T13:23:13.416Z,4.90
2022-10-11T13:24:13.394Z,4.73
2022-10-11T13:25:13.392Z,5.04
2022-10-11T13:26:13.397Z,4.66
2022-10-11T13:27:13.437Z,5.47
2022-10-11T13:28:13.432Z,5.27
2022-10-11T13:29:13.395Z,5.76
2022-10-11T13:30:13.412Z,5.69
2022-10-11T13:31:13.408Z,4.85
2022-10-11T13:32:13.432Z,4.53
2022-10-11T13:33:13.432Z,5.21
2022-10-11T13:34:13.430Z,4.72
2022-10-11T13:35:13.403Z,5.34
2022-10-11T13:36:13.438Z,5.44
2022-10-11T13:37:13.441Z,5.23
2022-10-11T13:38:13.412Z,5.49
2022-10-11T13:39:13.453Z,4.76
2022-10-11T13:40:13.432Z,5.03
2022-10-11T13:41:13.448Z,4.94
2022-10-11T13:42:13.465Z,4.36
2022-10-11T13:44:13.440Z,4.68
2022-10-11T13:45:13.458Z,4.32
2022-10-11T13:46:13.437Z,5.24
2022-10-11T13:47:13.473Z,5.38
2022-10-11T13:48:13.444Z,4.74
2022-10-11T13:49:13.444Z,4.70
2022-10-11T13:50:13.463Z,5.35
2022-10-11T13:51:13.468Z,5.15
2022-10-11T13:52:13.472Z,4.99
2022-10-11T13:53:13.453Z,4.82
2022-10-11T13:54:14.102Z,5.39
2022-10-11T13:55:13.483Z,6.33
2022-10-11T13:56:13.470Z,5.37
2022-10-11T13:57:13.482Z,5.24
2022-10-11T13:58:18.376Z,4.53
2022-10-11T13:59:13.475Z,5.80
2022-10-11T14:01:13.528Z,5.20
2022-10-11T14:02:13.506Z,5.17
2022-10-11T14:03:13.506Z,4.50
2022-10-11T14:04:13.558Z,4.76
2022-10-11T14:05:13.482Z,5.13
2022-10-11T14:06:13.524Z,5.03
2022-10-11T14:07:13.495Z,5.33
2022-10-11T14:08:13.491Z,5.37
2022-10-11T14:09:13.504Z,4.47
2022-10-11T14:10:13.535Z,4.73
2022-10-11T14:11:13.509Z,5.12
2022-10-11T14:12:13.533Z,5.25
2022-10-11T14:13:13.520Z,5.50
2022-10-11T14:14:13.530Z,5.11
2022-10-11T14:15:13.558Z,5.13
2022-10-11T14:16:13.514Z,4.66
2022-10-11T14:17:13.533Z,4.32
2022-10-11T14:18:13.512Z,5.10
2022-10-11T14:19:13.540Z,5.02
2022-10-11T14:20:13.528Z,5.22
2022-10-11T14:21:13.566Z,5.25
2022-10-11T14:22:13.557Z,5.27
2022-10-11T14:23:13.543Z,5.24
2022-10-11T14:24:13.563Z,5.45
2022-10-11T14:25:13.558Z,5.87
2022-10-11T14:26:18.368Z,5.69
2022-10-11T14:27:13.572Z,5.28
2022-10-11T14:28:13.643Z,4.97
2022-10-11T14:29:13.559Z,5.20
2022-10-11T14:30:25.145Z,5.21
2022-10-11T14:31:13.567Z,5.89
2022-10-11T14:32:13.577Z,5.31
2022-10-11T14:33:13.574Z,6.17
2022-10-11T14:35:13.584Z,5.73
2022-10-11T14:36:13.560Z,5.82
2022-10-11T14:37:13.568Z,6.90
2022-10-11T14:38:13.599Z,5.49
2022-10-11T14:39:13.595Z,5.48
2022-10-11T14:41:13.601Z,5.99
2022-10-11T14:42:13.622Z,7.39
2022-10-11T14:44:13.613Z,5.78
2022-10-11T14:45:13.619Z,5.69
2022-10-11T14:46:13.603Z,5.54
2022-10-11T14:47:13.615Z,5.10
2022-10-11T14:48:13.614Z,5.80
2022-10-11T14:49:13.626Z,5.32
2022-10-11T14:50:13.618Z,5.14
2022-10-11T14:51:13.627Z,6.11
2022-10-11T14:52:13.606Z,5.33
2022-10-11T14:53:13.629Z,6.25
2022-10-11T14:55:13.635Z,5.12
2022-10-11T14:56:17.730Z,6.09
2022-10-11T14:57:13.649Z,5.47
2022-10-11T14:58:13.645Z,5.53
2022-10-11T14:59:13.635Z,5.20
2022-10-11T15:00:13.635Z,5.94
2022-10-11T15:01:13.758Z,5.95
2022-10-11T15:03:13.643Z,5.45
2022-10-11T15:04:13.645Z,5.70
2022-10-11T15:05:13.673Z,5.70
2022-10-11T15:06:13.648Z,6.11
2022-10-11T15:09:13.669Z,6.56
2022-10-11T15:10:13.683Z,5.73
2022-10-11T15:11:13.681Z,6.03
2022-10-11T15:12:13.658Z,6.64
2022-10-11T15:13:13.675Z,6.34
2022-10-11T15:14:13.685Z,6.09
2022-10-11T15:16:13.672Z,6.40
2022-10-11T15:17:13.668Z,6.52
2022-10-11T15:18:13.687Z,6.03
2022-10-11T15:19:13.710Z,6.35
2022-10-11T15:20:13.687Z,6.12
2022-10-11T15:21:13.723Z,5.54
2022-10-11T15:22:13.705Z,5.30
2022-10-11T15:23:13.681Z,5.82
2022-10-11T15:24:13.712Z,6.07
2022-10-11T15:25:13.687Z,6.46
2022-10-11T15:26:13.717Z,6.56
2022-10-11T15:27:13.719Z,6.40
2022-10-11T15:28:13.727Z,6.83
2022-10-11T15:29:13.685Z,6.67
2022-10-11T15:30:13.722Z,6.01
2022-10-11T15:31:13.716Z,6.44
2022-10-11T15:32:13.705Z,6.93
2022-10-11T15:34:13.709Z,6.30
2022-10-11T15:36:13.718Z,6.42
2022-10-11T15:37:13.738Z,6.80
2022-10-11T15:38:13.736Z,6.43
2022-10-11T15:39:13.736Z,5.77
2022-10-11T15:41:13.732Z,5.95
2022-10-11T15:42:13.734Z,6.44
2022-10-11T15:43:13.749Z,5.65
2022-10-11T15:44:13.732Z,5.26
2022-10-11T15:45:13.740Z,6.28
2022-10-11T15:46:13.759Z,5.93
2022-10-11T15:47:13.743Z,5.66
2022-10-11T15:48:13.774Z,5.83
2022-10-11T15:49:13.776Z,5.76
2022-10-11T15:50:13.758Z,6.55
2022-10-11T15:51:13.783Z,6.50
2022-10-11T15:52:13.770Z,6.04
2022-10-11T15:53:13.797Z,5.57
2022-10-11T15:54:13.778Z,5.43
2022-10-11T15:55:13.755Z,5.81
2022-10-11T15:57:14.075Z,6.47
2022-10-11T15:58:13.771Z,5.69
2022-10-11T16:00:16.556Z,6.02
2022-10-11T16:01:13.838Z,6.08
2022-10-11T16:02:13.790Z,6.03
2022-10-11T16:03:13.816Z,5.65
2022-10-11T16:04:13.781Z,6.49
2022-10-11T16:05:13.799Z,6.42
2022-10-11T16:07:13.808Z,5.89
2022-10-11T16:08:13.793Z,6.30
2022-10-11T16:09:13.894Z,6.47
2022-10-11T16:10:13.806Z,7.11
2022-10-11T16:11:13.809Z,6.75
2022-10-11T16:12:13.822Z,7.84
2022-10-11T16:13:13.823Z,6.97
2022-10-11T16:14:13.827Z,7.52
2022-10-11T16:15:13.859Z,6.90
2022-10-11T16:16:13.843Z,6.46
2022-10-11T16:17:13.823Z,7.26
2022-10-11T16:18:13.843Z,6.55
2022-10-11T16:20:13.831Z,6.78
2022-10-11T16:21:13.868Z,7.54
2022-10-11T16:22:13.853Z,6.20
2022-10-11T16:23:13.858Z,6.93